McHenry, IL (60050)

10:18 PM CST on December 08, 2016 (GMT -0600)
Pheasant Valley | | Change Station

Elev 768 ft 42.35 °N, 88.30 °W | Updated 14 seconds ago

Partly Cloudy
Partly Cloudy
22.3 °F
Feels Like 16 °F
N
5.1
Wind Variable Wind from WNW
Gusts 7.4 mph

Today
High -- | Low -- °F
--% Chance of Precip.
Yesterday
High -- | Low -- °F
Precip. -- in
Pressure 30.42 in
Visibility 10.0 miles
Clouds Clear
Windchill 16 °F
Dew Point 12 °F
Humidity 63%
Rainfall 0.00 in
Snow Depth Not available.
7:10 AM 4:20 PM
Waxing Gibbous, 70% visible
METAR KUGN 090355Z AUTO 27007KT 10SM CLR M06/M09 A3036 RMK AO2 SLP300 T10561089 TSNO
Pressure 30.42 in
Visibility 10.0 miles
Clouds Clear
Windchill 16 °F
Dew Point 12 °F
Humidity 63%
Rainfall 0.00 in
Snow Depth Not available.
7:10 AM 4:20 PM
Waxing Gibbous, 70% visible
METAR KUGN 090355Z AUTO 27007KT 10SM CLR M06/M09 A3036 RMK AO2 SLP300 T10561089 TSNO

10-Day Weather Forecast

Almanac

Astronomy

Dec. 08, 2016 Rise Set
Actual Time
Civil Twilight
Nautical Twilight
Astronomical Twilight
Moon
Length of Visible Light
Length of Day
Tomorrow will be .
, % of the Moon is Illuminated

Today's Extremes

State Highs State Lows

Community

WunderPhotos

Upload Photos

1,956,370 photos uploaded!

WunderBlog® & News

Nearby

Air Quality

  Air Quality AQ Index Pollutant
Not available.

Snow Depth

Station Depth Elevation

Earthquake Activity

City Distance Mag. Time & Date
Minimum magnitude displayed is 2.5.

Coastal Water Temperatures

Place Temperature

Stations

Nearby Weather Stations

Station Location Temp. Windchill Dew Point Humidity Wind Precip. Elev Updated Type
                   

Watches & Warnings

There are currently no watches in effect.